createdAt,value
2022-12-22T00:02:10.051Z,97402.97
2022-12-22T00:04:36.795Z,97402.38
2022-12-22T00:07:03.454Z,97402.69
2022-12-22T00:09:30.326Z,97401.56
2022-12-22T00:11:57.007Z,97398.09
2022-12-22T00:14:23.619Z,97400.53
2022-12-22T00:16:50.307Z,97396.53
2022-12-22T00:19:16.961Z,97401.19
2022-12-22T00:21:43.650Z,97398.50
2022-12-22T00:24:10.315Z,97392.91
2022-12-22T00:26:36.967Z,97395.38
2022-12-22T00:29:03.609Z,97395.59
2022-12-22T00:31:30.246Z,97390.38
2022-12-22T00:33:56.940Z,97386.13
2022-12-22T00:36:23.575Z,97387.47
2022-12-22T00:38:50.213Z,97383.34
2022-12-22T00:41:16.851Z,97378.50
2022-12-22T00:43:43.558Z,97374.16
2022-12-22T00:46:10.283Z,97374.13
2022-12-22T00:48:36.941Z,97365.72
2022-12-22T00:51:03.657Z,97370.38
2022-12-22T00:53:30.301Z,97369.44
2022-12-22T00:55:56.962Z,97372.91
2022-12-22T00:58:23.646Z,97361.91
2022-12-22T01:00:50.337Z,97361.75
2022-12-22T01:03:17.180Z,97363.91
2022-12-22T01:05:43.926Z,97376.03
2022-12-22T01:08:10.586Z,97374.22
2022-12-22T01:10:37.387Z,97369.81
2022-12-22T01:13:04.067Z,97370.81
2022-12-22T01:15:30.832Z,97373.22
2022-12-22T01:17:57.618Z,97370.78
2022-12-22T01:20:24.312Z,97381.28
2022-12-22T01:22:50.985Z,97371.94
2022-12-22T01:25:17.658Z,97375.53
2022-12-22T01:27:44.296Z,97372.50
2022-12-22T01:30:11.045Z,97372.50
2022-12-22T01:32:37.734Z,97374.13
2022-12-22T01:35:04.423Z,97374.94
2022-12-22T01:37:31.087Z,97377.09
2022-12-22T01:39:57.799Z,97377.84
2022-12-22T01:42:24.427Z,97376.59
2022-12-22T01:44:51.143Z,97369.44
2022-12-22T01:47:17.790Z,97366.97
2022-12-22T01:49:44.512Z,97359.25
2022-12-22T01:52:11.218Z,97343.66
2022-12-22T01:54:37.916Z,97333.44
2022-12-22T01:57:04.621Z,97330.63
2022-12-22T01:59:31.298Z,97339.38
2022-12-22T02:01:58.257Z,97343.63
2022-12-22T02:04:25.051Z,97340.50
2022-12-22T02:06:57.912Z,97338.91
2022-12-22T02:09:26.534Z,97335.50
2022-12-22T02:11:53.274Z,97334.00
2022-12-22T02:14:22.567Z,97331.09
2022-12-22T02:16:52.905Z,97331.56
2022-12-22T02:19:19.564Z,97333.66
2022-12-22T02:21:46.262Z,97338.06
2022-12-22T02:24:12.914Z,97338.34
2022-12-22T02:26:39.624Z,97335.38
2022-12-22T02:29:06.266Z,97337.59
2022-12-22T02:31:33.055Z,97330.72
2022-12-22T02:33:59.848Z,97333.03
2022-12-22T02:36:26.571Z,97324.91
2022-12-22T02:38:53.284Z,97329.63
2022-12-22T02:41:19.991Z,97334.69
2022-12-22T02:43:46.631Z,97324.91
2022-12-22T02:46:13.515Z,97330.03
2022-12-22T02:48:40.185Z,97321.63
2022-12-22T02:51:06.800Z,97315.88
2022-12-22T02:53:33.671Z,97318.06
2022-12-22T02:56:00.354Z,97314.19
2022-12-22T02:58:27.052Z,97310.94
2022-12-22T03:00:53.727Z,97319.47
2022-12-22T03:03:22.791Z,97323.09
2022-12-22T03:05:49.610Z,97327.41
2022-12-22T03:08:16.255Z,97314.78
2022-12-22T03:10:42.907Z,97304.28
2022-12-22T03:13:09.611Z,97308.31
2022-12-22T03:15:36.305Z,97305.31
2022-12-22T03:18:02.972Z,97302.44
2022-12-22T03:20:29.652Z,97308.53
2022-12-22T03:22:56.370Z,97308.25
2022-12-22T03:25:23.050Z,97315.22
2022-12-22T03:27:49.699Z,97308.69
2022-12-22T03:30:16.337Z,97304.75
2022-12-22T03:32:42.969Z,97309.38
2022-12-22T03:35:09.599Z,97314.56
2022-12-22T03:37:36.286Z,97312.91
2022-12-22T03:40:02.984Z,97328.59
2022-12-22T03:42:29.654Z,97319.81
2022-12-22T03:44:56.456Z,97322.50
2022-12-22T03:47:23.126Z,97323.91
2022-12-22T03:49:49.776Z,97320.94
2022-12-22T03:52:16.440Z,97329.41
2022-12-22T03:54:43.105Z,97321.91
2022-12-22T03:57:09.827Z,97319.78
2022-12-22T03:59:36.535Z,97310.91
2022-12-22T04:02:03.396Z,97303.41
2022-12-22T04:04:30.253Z,97306.38
2022-12-22T04:06:56.886Z,97304.97
2022-12-22T04:09:23.577Z,97302.50
2022-12-22T04:11:50.239Z,97306.47
2022-12-22T04:14:16.887Z,97306.31
2022-12-22T04:16:43.578Z,97300.28
2022-12-22T04:19:10.320Z,97305.78
2022-12-22T04:21:37.078Z,97292.56
2022-12-22T04:24:03.791Z,97292.31
2022-12-22T04:26:30.546Z,97281.69
2022-12-22T04:28:57.269Z,97283.97
2022-12-22T04:31:24.082Z,97285.88
2022-12-22T04:33:50.844Z,97279.03
2022-12-22T04:36:17.520Z,97279.09
2022-12-22T04:38:44.237Z,97277.97
2022-12-22T04:41:10.972Z,97272.09
2022-12-22T04:43:37.675Z,97275.69
2022-12-22T04:46:04.512Z,97271.59
2022-12-22T04:48:31.190Z,97271.97
2022-12-22T04:50:57.832Z,97268.38
2022-12-22T04:53:24.488Z,97266.16
2022-12-22T04:55:51.132Z,97265.72
2022-12-22T04:58:18.061Z,97261.78
2022-12-22T05:00:44.762Z,97255.31
2022-12-22T05:03:11.449Z,97257.25
2022-12-22T05:05:38.179Z,97256.03
2022-12-22T05:08:04.818Z,97253.97
2022-12-22T05:10:31.467Z,97258.88
2022-12-22T05:12:58.151Z,97254.78
2022-12-22T05:15:24.803Z,97259.84
2022-12-22T05:17:51.428Z,97265.06
2022-12-22T05:20:18.081Z,97269.38
2022-12-22T05:22:44.780Z,97263.41
2022-12-22T05:25:11.393Z,97259.56
2022-12-22T05:27:38.116Z,97255.16
2022-12-22T05:30:04.767Z,97250.41
2022-12-22T05:32:31.461Z,97248.91
2022-12-22T05:34:58.120Z,97246.25
2022-12-22T05:37:24.782Z,97257.25
2022-12-22T05:39:51.491Z,97256.78
2022-12-22T05:42:18.224Z,97265.28
2022-12-22T05:44:44.999Z,97268.16
2022-12-22T05:47:11.677Z,97271.69
2022-12-22T05:49:38.519Z,97271.28
2022-12-22T05:52:05.252Z,97274.78
2022-12-22T05:54:31.978Z,97279.47
2022-12-22T05:56:58.860Z,97282.47
2022-12-22T05:59:25.700Z,97286.88
2022-12-22T06:01:52.452Z,97284.41
2022-12-22T06:04:19.429Z,97285.50
2022-12-22T06:06:46.261Z,97284.09
2022-12-22T06:09:12.909Z,97282.56
2022-12-22T06:11:39.570Z,97282.78
2022-12-22T06:14:06.262Z,97278.88
2022-12-22T06:16:33.058Z,97273.78
2022-12-22T06:18:59.819Z,97278.91
2022-12-22T06:21:26.568Z,97282.19
2022-12-22T06:23:53.230Z,97284.09
2022-12-22T06:26:19.929Z,97286.16
2022-12-22T06:28:46.601Z,97291.25
2022-12-22T06:31:13.419Z,97299.94
2022-12-22T06:33:40.133Z,97298.03
2022-12-22T06:36:06.816Z,97278.53
2022-12-22T06:38:33.542Z,97284.13
2022-12-22T06:41:00.193Z,97283.25
2022-12-22T06:43:26.818Z,97283.50
2022-12-22T06:45:53.776Z,97283.19
2022-12-22T06:48:20.560Z,97282.56
2022-12-22T06:50:47.201Z,97279.13
2022-12-22T06:53:13.937Z,97284.97
2022-12-22T06:55:40.592Z,97275.28
2022-12-22T06:58:07.310Z,97276.56
2022-12-22T07:00:33.978Z,97268.09
2022-12-22T07:03:01.028Z,97271.91
2022-12-22T07:05:27.872Z,97275.84
2022-12-22T07:07:54.560Z,97267.38
2022-12-22T07:10:21.218Z,97274.25
2022-12-22T07:12:47.856Z,97273.44
2022-12-22T07:15:14.735Z,97266.28
2022-12-22T07:17:41.419Z,97270.66
2022-12-22T07:20:08.101Z,97266.00
2022-12-22T07:22:34.801Z,97266.81
2022-12-22T07:25:01.434Z,97272.88
2022-12-22T07:27:28.125Z,97278.84
2022-12-22T07:29:54.785Z,97268.78
2022-12-22T07:32:21.472Z,97280.28
2022-12-22T07:34:48.145Z,97283.94
2022-12-22T07:37:14.811Z,97278.50
2022-12-22T07:39:41.552Z,97276.53
2022-12-22T07:42:08.252Z,97268.50
2022-12-22T07:44:34.933Z,97266.81
2022-12-22T07:47:01.680Z,97272.47
2022-12-22T07:49:28.362Z,97266.47
2022-12-22T07:51:55.070Z,97265.28
2022-12-22T07:54:21.761Z,97263.25
2022-12-22T07:56:48.502Z,97260.66
2022-12-22T07:59:15.209Z,97264.88
2022-12-22T08:01:42.178Z,97253.53
2022-12-22T08:04:09.063Z,97258.50
2022-12-22T08:06:35.746Z,97255.75
2022-12-22T08:09:02.433Z,97249.22
2022-12-22T08:11:29.153Z,97243.09
2022-12-22T08:14:01.053Z,97247.03
2022-12-22T08:16:28.540Z,97256.31
2022-12-22T08:18:55.740Z,97252.94
2022-12-22T08:21:22.426Z,97255.94
2022-12-22T08:23:49.042Z,97252.19
2022-12-22T08:26:15.966Z,97256.63
2022-12-22T08:28:42.652Z,97245.38
2022-12-22T08:31:09.426Z,97241.63
2022-12-22T08:33:36.165Z,97240.19
2022-12-22T08:36:07.740Z,97252.19
2022-12-22T08:38:35.024Z,97242.94
2022-12-22T08:41:01.691Z,97236.03
2022-12-22T08:43:28.403Z,97242.53
2022-12-22T08:45:55.044Z,97248.25
2022-12-22T08:48:21.765Z,97248.75
2022-12-22T08:50:48.476Z,97243.81
2022-12-22T08:53:45.160Z,97237.63
2022-12-22T08:56:01.787Z,97240.47
2022-12-22T08:58:28.441Z,97240.47
2022-12-22T09:00:55.223Z,97240.16
2022-12-22T09:03:22.049Z,97242.94
2022-12-22T09:05:48.790Z,97240.72
2022-12-22T09:08:15.462Z,97239.91
2022-12-22T09:10:42.133Z,97236.19
2022-12-22T09:13:08.800Z,97240.66
2022-12-22T09:15:35.487Z,97237.25
2022-12-22T09:18:02.169Z,97239.25
2022-12-22T09:20:28.898Z,97233.41
2022-12-22T09:22:55.535Z,97226.56
2022-12-22T09:25:22.402Z,97222.63
2022-12-22T09:27:49.093Z,97216.00
2022-12-22T09:30:15.769Z,97212.50
2022-12-22T09:32:42.411Z,97210.41
2022-12-22T09:35:09.077Z,97197.31
2022-12-22T09:37:35.752Z,97196.13
2022-12-22T09:40:02.437Z,97184.19
2022-12-22T09:42:29.286Z,97183.69
2022-12-22T09:44:55.946Z,97184.69
2022-12-22T09:47:22.696Z,97184.09
2022-12-22T09:49:49.386Z,97173.56
2022-12-22T09:52:16.050Z,97175.81
2022-12-22T09:54:42.775Z,97178.69
2022-12-22T09:57:09.467Z,97178.72
2022-12-22T09:59:36.182Z,97162.91
2022-12-22T10:02:02.932Z,97158.81
2022-12-22T10:04:29.918Z,97150.25
2022-12-22T10:06:56.630Z,97151.78
2022-12-22T10:09:48.311Z,97144.69
2022-12-22T10:12:10.053Z,97147.13
2022-12-22T10:14:36.800Z,97149.41
2022-12-22T10:17:03.537Z,97152.69
2022-12-22T10:19:30.298Z,97140.72
2022-12-22T10:21:56.941Z,97135.03
2022-12-22T10:24:23.696Z,97136.31
2022-12-22T10:26:50.352Z,97131.72
2022-12-22T10:29:17.023Z,97121.00
2022-12-22T10:31:43.747Z,97114.22
2022-12-22T10:34:10.506Z,97115.09
2022-12-22T10:36:37.200Z,97111.31
2022-12-22T10:39:04.380Z,97112.78
2022-12-22T10:41:31.196Z,97099.53
2022-12-22T10:43:57.884Z,97094.94
2022-12-22T10:46:24.667Z,97094.97
2022-12-22T10:48:51.356Z,97087.97
2022-12-22T10:51:18.617Z,97095.56
2022-12-22T10:53:45.325Z,97090.59
2022-12-22T10:56:11.987Z,97086.38
2022-12-22T10:58:38.696Z,97083.34
2022-12-22T11:01:05.535Z,97081.38
2022-12-22T11:03:32.587Z,97065.78
2022-12-22T11:05:59.446Z,97052.25
2022-12-22T11:08:26.131Z,97036.38
2022-12-22T11:10:52.833Z,97029.50
2022-12-22T11:13:19.527Z,97014.53
2022-12-22T11:15:46.269Z,97019.50
2022-12-22T11:18:13.020Z,97029.22
2022-12-22T11:20:39.721Z,97023.09
2022-12-22T11:23:06.446Z,97025.03
2022-12-22T11:25:33.167Z,97019.41
2022-12-22T11:27:59.867Z,97016.94
2022-12-22T11:30:26.574Z,97022.91
2022-12-22T11:32:53.346Z,97019.72
2022-12-22T11:35:20.035Z,97027.22
2022-12-22T11:37:46.679Z,97025.19
2022-12-22T11:40:13.403Z,97011.31
2022-12-22T11:42:40.064Z,97009.44
2022-12-22T11:45:06.742Z,97012.78
2022-12-22T11:47:33.557Z,97011.19
2022-12-22T11:50:46.117Z,97013.19
2022-12-22T11:52:46.910Z,97007.63
2022-12-22T11:55:13.667Z,97009.44
2022-12-22T11:57:40.492Z,97008.25
2022-12-22T12:00:07.674Z,97009.56
2022-12-22T12:02:34.395Z,97009.13
2022-12-22T12:05:01.133Z,97008.81
2022-12-22T12:07:27.859Z,97005.34
2022-12-22T12:09:54.516Z,96994.78
2022-12-22T12:12:21.457Z,96983.56
2022-12-22T12:14:48.100Z,96983.94
2022-12-22T12:17:14.799Z,96976.63
2022-12-22T12:19:44.199Z,96968.72
2022-12-22T12:22:10.887Z,96970.13
2022-12-22T12:24:37.586Z,96978.44
2022-12-22T12:27:04.297Z,96973.97
2022-12-22T12:29:31.026Z,96971.75
2022-12-22T12:31:57.743Z,96971.88
2022-12-22T12:34:24.423Z,96977.72
2022-12-22T12:36:51.110Z,96984.47
2022-12-22T12:39:17.738Z,96983.84
2022-12-22T12:41:44.428Z,96994.19
2022-12-22T12:44:11.142Z,96986.81
2022-12-22T12:46:38.057Z,96999.84
2022-12-22T12:49:04.837Z,97000.53
2022-12-22T12:51:31.505Z,97002.91
2022-12-22T12:53:58.222Z,97009.53
2022-12-22T12:56:25.031Z,97007.84
2022-12-22T12:58:51.768Z,97007.50
2022-12-22T13:01:18.457Z,97010.34
2022-12-22T13:06:31.893Z,97010.06
2022-12-22T13:09:14.340Z,97013.69
2022-12-22T13:14:31.892Z,97019.94
2022-12-22T13:16:58.661Z,97025.00
2022-12-22T13:19:25.384Z,97012.69
2022-12-22T13:21:53.861Z,97018.47
2022-12-22T13:24:26.235Z,97021.38
2022-12-22T13:26:53.384Z,97030.88
2022-12-22T13:29:20.061Z,97026.66
2022-12-22T13:31:46.954Z,97024.84
2022-12-22T13:34:13.815Z,97031.88
2022-12-22T13:36:40.468Z,97034.44
2022-12-22T13:39:07.164Z,97037.47
2022-12-22T13:41:33.942Z,97039.38
2022-12-22T13:44:00.843Z,97040.19
2022-12-22T13:46:27.612Z,97041.72
2022-12-22T13:48:54.332Z,97043.53
2022-12-22T13:51:21.121Z,97036.34
2022-12-22T13:56:34.453Z,97048.25
2022-12-22T13:59:01.125Z,97056.66
2022-12-22T14:01:27.851Z,97056.59
2022-12-22T14:04:02.960Z,97052.03
2022-12-22T14:06:30.132Z,97054.28
2022-12-22T14:08:56.912Z,97058.19
2022-12-22T14:11:23.659Z,97061.09
2022-12-22T14:13:50.292Z,97057.66
2022-12-22T14:16:17.021Z,97060.47
2022-12-22T14:18:43.765Z,97058.13
2022-12-22T14:21:10.806Z,97065.72
2022-12-22T14:23:37.477Z,97069.38
2022-12-22T14:26:04.252Z,97070.88
2022-12-22T14:28:30.913Z,97069.31
2022-12-22T14:30:57.609Z,97066.94
2022-12-22T14:33:24.270Z,97075.41
2022-12-22T14:35:50.942Z,97080.03
2022-12-22T14:38:17.667Z,97072.91
2022-12-22T14:40:44.521Z,97071.41
2022-12-22T14:43:11.193Z,97075.59
2022-12-22T14:45:37.956Z,97073.47
2022-12-22T14:48:04.739Z,97068.47
2022-12-22T14:50:31.478Z,97072.06
2022-12-22T14:52:58.239Z,97078.44
2022-12-22T14:55:25.183Z,97068.88
2022-12-22T14:57:51.847Z,97049.56
2022-12-22T15:00:18.488Z,97049.69
2022-12-22T15:02:45.288Z,97044.47
2022-12-22T15:05:12.000Z,97050.94
2022-12-22T15:08:04.708Z,97058.16
2022-12-22T15:10:25.449Z,97067.78
2022-12-22T15:12:52.366Z,97084.72
2022-12-22T15:15:20.699Z,97103.34
2022-12-22T15:17:47.399Z,97106.63
2022-12-22T15:20:14.069Z,97109.78
2022-12-22T15:22:41.046Z,97111.41
2022-12-22T15:25:07.734Z,97097.09
2022-12-22T15:27:34.404Z,97102.50
2022-12-22T15:30:01.064Z,97110.72
2022-12-22T15:32:31.741Z,97117.41
2022-12-22T15:35:01.165Z,97124.47
2022-12-22T15:37:27.860Z,97117.97
2022-12-22T15:39:54.523Z,97117.91
2022-12-22T15:42:21.267Z,97121.59
2022-12-22T15:44:47.983Z,97122.97
2022-12-22T15:47:14.724Z,97124.44
2022-12-22T15:49:41.470Z,97125.22
2022-12-22T15:52:08.185Z,97125.69
2022-12-22T15:54:34.881Z,97129.19
2022-12-22T15:57:01.506Z,97137.16
2022-12-22T15:59:28.151Z,97146.91
2022-12-22T16:02:00.494Z,97156.94
2022-12-22T16:04:28.303Z,97165.19
2022-12-22T16:06:55.097Z,97171.88
2022-12-22T16:09:21.759Z,97183.75
2022-12-22T16:11:48.643Z,97180.81
2022-12-22T16:14:15.279Z,97188.88
2022-12-22T16:16:41.977Z,97193.88
2022-12-22T16:19:08.709Z,97201.03
2022-12-22T16:21:35.365Z,97205.50
2022-12-22T16:24:02.076Z,97200.28
2022-12-22T16:26:28.801Z,97211.38
2022-12-22T16:28:55.476Z,97221.59
2022-12-22T16:31:22.220Z,97217.25
2022-12-22T16:33:49.079Z,97219.38
2022-12-22T16:36:15.790Z,97218.31
2022-12-22T16:38:42.619Z,97211.31
2022-12-22T16:41:09.310Z,97204.13
2022-12-22T16:43:51.439Z,97203.38
2022-12-22T16:46:18.245Z,97208.59
2022-12-22T16:48:45.044Z,97200.84
2022-12-22T16:51:11.945Z,97201.81
2022-12-22T16:53:38.657Z,97188.09
2022-12-22T16:56:05.380Z,97182.56
2022-12-22T16:58:32.036Z,97189.06
2022-12-22T17:00:58.710Z,97163.59
2022-12-22T17:03:25.503Z,97126.34
2022-12-22T17:05:52.324Z,97130.06
2022-12-22T17:08:19.012Z,97124.38
2022-12-22T17:10:45.694Z,97150.06
2022-12-22T17:13:12.361Z,97166.78
2022-12-22T17:15:39.081Z,97164.59
2022-12-22T17:18:05.820Z,97170.84
2022-12-22T17:20:34.082Z,97172.97
2022-12-22T17:23:00.769Z,97178.59
2022-12-22T17:25:27.428Z,97168.44
2022-12-22T17:27:54.112Z,97157.94
2022-12-22T17:30:20.780Z,97156.97
2022-12-22T17:32:47.482Z,97146.19
2022-12-22T17:35:14.132Z,97154.00
2022-12-22T17:37:40.769Z,97165.50
2022-12-22T17:40:07.493Z,97177.31
2022-12-22T17:42:34.254Z,97177.44
2022-12-22T17:45:01.116Z,97177.91
2022-12-22T17:47:33.432Z,97185.78
2022-12-22T17:50:01.738Z,97187.06
2022-12-22T17:52:28.412Z,97175.94
2022-12-22T17:54:55.095Z,97189.16
2022-12-22T17:57:21.760Z,97189.97
2022-12-22T17:59:48.408Z,97189.94
2022-12-22T18:02:15.185Z,97201.72
2022-12-22T18:04:42.039Z,97197.78
2022-12-22T18:07:08.720Z,97203.84
2022-12-22T18:09:35.390Z,97194.22
2022-12-22T18:12:02.277Z,97204.34
2022-12-22T18:14:28.985Z,97203.34
2022-12-22T18:16:55.667Z,97210.72
2022-12-22T18:19:22.328Z,97212.19
2022-12-22T18:21:48.965Z,97222.63
2022-12-22T18:24:15.657Z,97233.06
2022-12-22T18:26:42.310Z,97235.06
2022-12-22T18:29:08.982Z,97236.38
2022-12-22T18:31:35.757Z,97229.34
2022-12-22T18:34:02.418Z,97225.56
2022-12-22T18:36:29.155Z,97219.03
2022-12-22T18:38:55.847Z,97229.50
2022-12-22T18:41:22.582Z,97236.34
2022-12-22T18:43:49.294Z,97230.47
2022-12-22T18:46:16.072Z,97231.94
2022-12-22T18:48:43.046Z,97227.84
2022-12-22T18:51:09.738Z,97231.41
2022-12-22T18:53:36.424Z,97228.47
2022-12-22T18:56:03.122Z,97228.13
2022-12-22T18:58:29.813Z,97229.91
2022-12-22T19:00:56.670Z,97221.28
2022-12-22T19:03:23.470Z,97220.00
2022-12-22T19:05:50.280Z,97214.56
2022-12-22T19:08:16.980Z,97219.78
2022-12-22T19:10:43.712Z,97229.47
2022-12-22T19:13:10.341Z,97221.13
2022-12-22T19:15:37.002Z,97220.94
2022-12-22T19:18:03.642Z,97232.41
2022-12-22T19:20:30.323Z,97232.56
2022-12-22T19:22:57.011Z,97230.59
2022-12-22T19:25:23.750Z,97221.50
2022-12-22T19:27:50.460Z,97208.09
2022-12-22T19:30:17.152Z,97213.78
2022-12-22T19:32:44.012Z,97215.41
2022-12-22T19:35:10.849Z,97207.75
2022-12-22T19:37:37.547Z,97215.44
2022-12-22T19:40:04.271Z,97222.63
2022-12-22T19:42:30.986Z,97221.34
2022-12-22T19:44:57.633Z,97221.66
2022-12-22T19:47:24.386Z,97221.50
2022-12-22T19:49:51.280Z,97212.50
2022-12-22T19:52:17.979Z,97216.28
2022-12-22T19:54:44.662Z,97217.41
2022-12-22T19:57:13.304Z,97214.47
2022-12-22T19:59:40.205Z,97202.75
2022-12-22T20:02:07.165Z,97198.00
2022-12-22T20:04:33.996Z,97200.44
2022-12-22T20:07:00.682Z,97196.03
2022-12-22T20:09:27.318Z,97184.13
2022-12-22T20:11:54.079Z,97190.66
2022-12-22T20:14:20.812Z,97194.09
2022-12-22T20:16:47.605Z,97195.41
2022-12-22T20:19:14.323Z,97196.22
2022-12-22T20:21:40.961Z,97199.97
2022-12-22T20:24:07.693Z,97189.34
2022-12-22T20:26:34.400Z,97193.13
2022-12-22T20:29:01.046Z,97204.00
2022-12-22T20:31:27.775Z,97206.78
2022-12-22T20:33:54.583Z,97201.56
2022-12-22T20:36:21.295Z,97209.22
2022-12-22T20:38:48.010Z,97200.59
2022-12-22T20:41:14.743Z,97210.06
2022-12-22T20:43:41.426Z,97199.16
2022-12-22T20:46:08.293Z,97197.84
2022-12-22T20:48:34.991Z,97195.88
2022-12-22T20:51:01.709Z,97196.50
2022-12-22T20:53:28.383Z,97193.94
2022-12-22T20:55:55.316Z,97185.59
2022-12-22T20:58:22.080Z,97203.06
2022-12-22T21:00:48.848Z,97198.16
2022-12-22T21:03:15.724Z,97207.09
2022-12-22T21:05:42.478Z,97212.63
2022-12-22T21:08:10.823Z,97202.41
2022-12-22T21:10:40.590Z,97197.03
2022-12-22T21:13:07.368Z,97203.88
2022-12-22T21:15:34.088Z,97209.91
2022-12-22T21:18:00.748Z,97210.56
2022-12-22T21:20:27.482Z,97211.03
2022-12-22T21:22:54.207Z,97194.09
2022-12-22T21:25:21.001Z,97196.81
2022-12-22T21:27:47.676Z,97201.56
2022-12-22T21:30:14.383Z,97191.81
2022-12-22T21:32:41.050Z,97197.84
2022-12-22T21:35:08.499Z,97198.19
2022-12-22T21:37:35.382Z,97190.66
2022-12-22T21:40:02.176Z,97190.53
2022-12-22T21:42:28.854Z,97202.41
2022-12-22T21:44:55.592Z,97191.34
2022-12-22T21:47:22.244Z,97180.53
2022-12-22T21:49:49.170Z,97181.06
2022-12-22T21:52:16.009Z,97197.03
2022-12-22T21:54:42.744Z,97183.31
2022-12-22T21:57:09.494Z,97188.22
2022-12-22T21:59:36.292Z,97177.47
2022-12-22T22:02:03.106Z,97175.34
2022-12-22T22:04:29.848Z,97176.63
2022-12-22T22:06:56.619Z,97170.13
2022-12-22T22:09:23.272Z,97175.03
2022-12-22T22:11:50.235Z,97180.88
2022-12-22T22:14:17.081Z,97168.31
2022-12-22T22:16:43.805Z,97162.94
2022-12-22T22:19:10.509Z,97163.78
2022-12-22T22:21:37.149Z,97164.25
2022-12-22T22:24:03.866Z,97157.19
2022-12-22T22:26:30.570Z,97148.38
2022-12-22T22:28:57.278Z,97161.47
2022-12-22T22:31:24.030Z,97153.28
2022-12-22T22:33:50.705Z,97151.69
2022-12-22T22:36:17.423Z,97150.38
2022-12-22T22:38:44.140Z,97143.69
2022-12-22T22:41:10.772Z,97137.97
2022-12-22T22:43:37.581Z,97140.41
2022-12-22T22:46:04.261Z,97131.41
2022-12-22T22:48:30.958Z,97127.00
2022-12-22T22:50:57.786Z,97123.91
2022-12-22T22:53:24.455Z,97118.72
2022-12-22T22:55:51.250Z,97114.66
2022-12-22T22:58:18.259Z,97108.63
2022-12-22T23:00:45.201Z,97102.59
2022-12-22T23:03:11.987Z,97103.59
2022-12-22T23:05:38.719Z,97105.88
2022-12-22T23:08:05.463Z,97091.53
2022-12-22T23:10:37.735Z,97090.69
2022-12-22T23:13:07.933Z,97087.78
2022-12-22T23:15:34.580Z,97084.38
2022-12-22T23:18:01.210Z,97076.34
2022-12-22T23:20:27.869Z,97072.28
2022-12-22T23:22:54.487Z,97074.25
2022-12-22T23:25:21.205Z,97072.78
2022-12-22T23:27:47.909Z,97050.94
2022-12-22T23:30:14.647Z,97059.56
2022-12-22T23:32:41.296Z,97070.16
2022-12-22T23:35:07.930Z,97067.25
2022-12-22T23:37:34.664Z,97060.09
2022-12-22T23:40:41.468Z,97067.41
2022-12-22T23:42:51.753Z,97062.50
2022-12-22T23:45:23.248Z,97063.97
2022-12-22T23:47:49.908Z,97068.91
2022-12-22T23:50:16.557Z,97068.72
2022-12-22T23:52:48.865Z,97052.75
2022-12-22T23:55:16.062Z,97062.22
2022-12-22T23:57:42.748Z,97054.34
